MDA191 RCQC-RCSS
Flight info
| Callsign | MDA191 |
|---|---|
| Flight time | 0h 30m |
| Altitude | 11000 |
| Route | SWORD1A SWORD A1 HLG HLG1E |
| Aircraft | E190/M-SDE3GILORVW/S |
Departure
| Time | 2026-04-20 05:30 |
|---|---|
| Airport | Penghu Magong Airport (RCQC) |
Arrival
| Time | 2026-04-20 06:00 |
|---|---|
| Airport | Taipei Songshan International Airport (RCSS) |
| Time | Latitude | Longitude | Altitude | Speed | Heading |
|---|---|---|---|---|---|
| 2026-04-20 05:11 | 23.56075 | 119.62880 | 97 ft | 0 kts | 108° |
| 2026-04-20 05:23 | 23.56075 | 119.62879 | 97 ft | 0 kts | 109° |
| 2026-04-20 05:23 | 23.56082 | 119.62857 | 97 ft | 4 kts | 109° |
| 2026-04-20 05:23 | 23.56091 | 119.62830 | 97 ft | 4 kts | 108° |
| 2026-04-20 05:23 | 23.56102 | 119.62807 | 99 ft | 4 kts | 162° |
| 2026-04-20 05:24 | 23.56122 | 119.62807 | 97 ft | 2 kts | 198° |
| 2026-04-20 05:24 | 23.56138 | 119.62813 | 99 ft | 0 kts | 198° |
| 2026-04-20 05:26 | 23.56129 | 119.62810 | 98 ft | 3 kts | 198° |
| 2026-04-20 05:27 | 23.56098 | 119.62799 | 98 ft | 6 kts | 198° |
| 2026-04-20 05:27 | 23.56048 | 119.62781 | 98 ft | 9 kts | 198° |
| 2026-04-20 05:27 | 23.55978 | 119.62756 | 97 ft | 12 kts | 198° |
| 2026-04-20 05:27 | 23.55891 | 119.62724 | 98 ft | 15 kts | 198° |
| 2026-04-20 05:28 | 23.55790 | 119.62687 | 98 ft | 16 kts | 199° |
| 2026-04-20 05:28 | 23.55688 | 119.62651 | 103 ft | 15 kts | 198° |
| 2026-04-20 05:28 | 23.55592 | 119.62617 | 107 ft | 14 kts | 198° |
| 2026-04-20 05:28 | 23.55542 | 119.62589 | 109 ft | 7 kts | 231° |
| 2026-04-20 05:29 | 23.55539 | 119.62532 | 109 ft | 9 kts | 288° |
| 2026-04-20 05:29 | 23.55554 | 119.62487 | 108 ft | 11 kts | 290° |
| 2026-04-20 05:29 | 23.55584 | 119.62404 | 108 ft | 12 kts | 300° |
| 2026-04-20 05:29 | 23.55698 | 119.62407 | 108 ft | 20 kts | 19° |
| 2026-04-20 05:30 | 23.56132 | 119.62560 | 103 ft | 114 kts | 18° |
| 2026-04-20 05:30 | 23.57144 | 119.62922 | 297 ft | 182 kts | 17° |
| 2026-04-20 05:30 | 23.58460 | 119.63397 | 1161 ft | 218 kts | 14° |
| 2026-04-20 05:30 | 23.59981 | 119.64138 | 1692 ft | 243 kts | 30° |
| 2026-04-20 05:31 | 23.61142 | 119.65245 | 2203 ft | 208 kts | 45° |
| 2026-04-20 05:31 | 23.61803 | 119.66053 | 2535 ft | 225 kts | 47° |
| 2026-04-20 05:31 | 23.62882 | 119.67444 | 3134 ft | 254 kts | 48° |
| 2026-04-20 05:31 | 23.64474 | 119.69531 | 3981 ft | 285 kts | 48° |
| 2026-04-20 05:32 | 23.65788 | 119.71260 | 4625 ft | 305 kts | 48° |
| 2026-04-20 05:32 | 23.67247 | 119.72995 | 5281 ft | 313 kts | 43° |
| 2026-04-20 05:32 | 23.68785 | 119.74701 | 5907 ft | 316 kts | 43° |
| 2026-04-20 05:32 | 23.70337 | 119.76415 | 6515 ft | 319 kts | 43° |
| 2026-04-20 05:33 | 23.71908 | 119.78140 | 7117 ft | 321 kts | 43° |
| 2026-04-20 05:33 | 23.72953 | 119.79290 | 7523 ft | 324 kts | 43° |
| 2026-04-20 05:33 | 23.74546 | 119.81040 | 8135 ft | 327 kts | 43° |
| 2026-04-20 05:33 | 23.76672 | 119.83386 | 8928 ft | 330 kts | 44° |
| 2026-04-20 05:34 | 23.77728 | 119.84630 | 9335 ft | 331 kts | 45° |
| 2026-04-20 05:34 | 23.79928 | 119.86969 | 10123 ft | 335 kts | 43° |
| 2026-04-20 05:34 | 23.82684 | 119.90001 | 10835 ft | 342 kts | 43° |
| 2026-04-20 05:35 | 23.84916 | 119.92463 | 10939 ft | 341 kts | 43° |
| 2026-04-20 05:35 | 23.86585 | 119.94302 | 10983 ft | 342 kts | 43° |
| 2026-04-20 05:35 | 23.87684 | 119.95525 | 10993 ft | 341 kts | 44° |
| 2026-04-20 05:35 | 23.89915 | 119.97988 | 11002 ft | 341 kts | 43° |
| 2026-04-20 05:36 | 23.91018 | 119.99207 | 11001 ft | 341 kts | 43° |
| 2026-04-20 05:36 | 23.92685 | 120.01048 | 11002 ft | 341 kts | 43° |
| 2026-04-20 05:36 | 23.94891 | 120.03487 | 10994 ft | 341 kts | 43° |
| 2026-04-20 05:36 | 23.96017 | 120.04732 | 11000 ft | 341 kts | 43° |
| 2026-04-20 05:37 | 23.97682 | 120.06575 | 11002 ft | 341 kts | 43° |
| 2026-04-20 05:37 | 23.99897 | 120.09004 | 11007 ft | 341 kts | 44° |
| 2026-04-20 05:37 | 24.00986 | 120.10242 | 10993 ft | 341 kts | 44° |
| 2026-04-20 05:37 | 24.02635 | 120.12104 | 10993 ft | 341 kts | 44° |
| 2026-04-20 05:38 | 24.04282 | 120.13966 | 11007 ft | 341 kts | 44° |
| 2026-04-20 05:38 | 24.05931 | 120.15829 | 11013 ft | 341 kts | 44° |
| 2026-04-20 05:38 | 24.07580 | 120.17694 | 11000 ft | 341 kts | 44° |
| 2026-04-20 05:38 | 24.09227 | 120.19555 | 10998 ft | 341 kts | 44° |
| 2026-04-20 05:39 | 24.10877 | 120.21421 | 11007 ft | 341 kts | 44° |
| 2026-04-20 05:39 | 24.12504 | 120.23259 | 11004 ft | 341 kts | 44° |
| 2026-04-20 05:39 | 24.14150 | 120.25125 | 10998 ft | 341 kts | 44° |
| 2026-04-20 05:39 | 24.15797 | 120.26992 | 10994 ft | 340 kts | 44° |
| 2026-04-20 05:40 | 24.17446 | 120.28855 | 11003 ft | 341 kts | 44° |
| 2026-04-20 05:40 | 24.19092 | 120.30723 | 11001 ft | 341 kts | 44° |
| 2026-04-20 05:40 | 24.20739 | 120.32594 | 10999 ft | 341 kts | 44° |
| 2026-04-20 05:40 | 24.22386 | 120.34461 | 11000 ft | 341 kts | 44° |
| 2026-04-20 05:41 | 24.24033 | 120.36327 | 11003 ft | 341 kts | 44° |
| 2026-04-20 05:41 | 24.25682 | 120.38194 | 11007 ft | 341 kts | 44° |
| 2026-04-20 05:41 | 24.27305 | 120.40035 | 10985 ft | 341 kts | 44° |
| 2026-04-20 05:41 | 24.28951 | 120.41908 | 10994 ft | 341 kts | 44° |
| 2026-04-20 05:42 | 24.30596 | 120.43780 | 11003 ft | 341 kts | 44° |
| 2026-04-20 05:42 | 24.32239 | 120.45650 | 11009 ft | 341 kts | 44° |
| 2026-04-20 05:42 | 24.33886 | 120.47519 | 10990 ft | 341 kts | 44° |
| 2026-04-20 05:42 | 24.35531 | 120.49391 | 10993 ft | 341 kts | 44° |
| 2026-04-20 05:43 | 24.37177 | 120.51264 | 11003 ft | 341 kts | 44° |
| 2026-04-20 05:43 | 24.38823 | 120.53135 | 11005 ft | 341 kts | 44° |
| 2026-04-20 05:43 | 24.40358 | 120.54848 | 11003 ft | 341 kts | 44° |
| 2026-04-20 05:43 | 24.41981 | 120.56711 | 11010 ft | 341 kts | 45° |
| 2026-04-20 05:44 | 24.43612 | 120.58597 | 11006 ft | 341 kts | 44° |
| 2026-04-20 05:44 | 24.45254 | 120.60471 | 11006 ft | 341 kts | 44° |
| 2026-04-20 05:44 | 24.46896 | 120.62343 | 11018 ft | 341 kts | 44° |
| 2026-04-20 05:44 | 24.48544 | 120.64223 | 11017 ft | 341 kts | 44° |
| 2026-04-20 05:45 | 24.50190 | 120.66099 | 11010 ft | 341 kts | 44° |
| 2026-04-20 05:45 | 24.51858 | 120.67946 | 10993 ft | 341 kts | 44° |
| 2026-04-20 05:45 | 24.53493 | 120.69829 | 11080 ft | 341 kts | 42° |
| 2026-04-20 05:45 | 24.55159 | 120.71302 | 11088 ft | 339 kts | 31° |
| 2026-04-20 05:46 | 24.57139 | 120.72706 | 11064 ft | 339 kts | 30° |
| 2026-04-20 05:46 | 24.59011 | 120.74221 | 11046 ft | 340 kts | 40° |
| 2026-04-20 05:46 | 24.60608 | 120.76148 | 11040 ft | 342 kts | 49° |
| 2026-04-20 05:46 | 24.62061 | 120.78217 | 11028 ft | 343 kts | 51° |
| 2026-04-20 05:47 | 24.63498 | 120.80307 | 10670 ft | 339 kts | 46° |
| 2026-04-20 05:47 | 24.65043 | 120.82185 | 10327 ft | 325 kts | 41° |
| 2026-04-20 05:47 | 24.66548 | 120.83990 | 9919 ft | 316 kts | 43° |
| 2026-04-20 05:47 | 24.67984 | 120.85778 | 9517 ft | 309 kts | 48° |
| 2026-04-20 05:48 | 24.69334 | 120.87575 | 9171 ft | 304 kts | 49° |
| 2026-04-20 05:48 | 24.70643 | 120.89329 | 8800 ft | 297 kts | 43° |
| 2026-04-20 05:48 | 24.72032 | 120.90994 | 8447 ft | 294 kts | 43° |
| 2026-04-20 05:48 | 24.73384 | 120.92678 | 8063 ft | 294 kts | 44° |
| 2026-04-20 05:49 | 24.74729 | 120.94367 | 7682 ft | 293 kts | 44° |
| 2026-04-20 05:49 | 24.76046 | 120.96072 | 7308 ft | 293 kts | 45° |
| 2026-04-20 05:49 | 24.77417 | 120.97742 | 6757 ft | 294 kts | 43° |
| 2026-04-20 05:49 | 24.78790 | 120.99427 | 6177 ft | 297 kts | 44° |
| 2026-04-20 05:50 | 24.80141 | 121.01113 | 5600 ft | 298 kts | 44° |
| 2026-04-20 05:50 | 24.81506 | 121.02839 | 5036 ft | 299 kts | 44° |
| 2026-04-20 05:50 | 24.82866 | 121.04557 | 4424 ft | 298 kts | 44° |
| 2026-04-20 05:50 | 24.84234 | 121.06272 | 3928 ft | 298 kts | 44° |
| 2026-04-20 05:51 | 24.85597 | 121.07987 | 3426 ft | 297 kts | 44° |
| 2026-04-20 05:51 | 24.86921 | 121.09643 | 3272 ft | 281 kts | 45° |
| 2026-04-20 05:51 | 24.88179 | 121.11244 | 3249 ft | 273 kts | 44° |
| 2026-04-20 05:51 | 24.89404 | 121.12843 | 3234 ft | 273 kts | 49° |
| 2026-04-20 05:52 | 24.90646 | 121.14434 | 3269 ft | 274 kts | 46° |
| 2026-04-20 05:52 | 24.91903 | 121.15975 | 3150 ft | 275 kts | 44° |
| 2026-04-20 05:52 | 24.93183 | 121.17535 | 2957 ft | 272 kts | 44° |
| 2026-04-20 05:52 | 24.94518 | 121.18993 | 2756 ft | 269 kts | 31° |
| 2026-04-20 05:53 | 24.96071 | 121.20133 | 2576 ft | 268 kts | 32° |
| 2026-04-20 05:53 | 24.97624 | 121.21270 | 2402 ft | 267 kts | 32° |
| 2026-04-20 05:53 | 24.99041 | 121.22600 | 2219 ft | 269 kts | 46° |
| 2026-04-20 05:53 | 25.00185 | 121.24205 | 2106 ft | 262 kts | 49° |
| 2026-04-20 05:54 | 25.01247 | 121.25776 | 2043 ft | 249 kts | 47° |
| 2026-04-20 05:54 | 25.02267 | 121.27252 | 1995 ft | 235 kts | 46° |
| 2026-04-20 05:54 | 25.03265 | 121.28606 | 1986 ft | 220 kts | 43° |
| 2026-04-20 05:54 | 25.04187 | 121.29835 | 2053 ft | 200 kts | 50° |
| 2026-04-20 05:55 | 25.04966 | 121.30975 | 2147 ft | 175 kts | 36° |
| 2026-04-20 05:55 | 25.05929 | 121.31642 | 2371 ft | 161 kts | 342° |
| 2026-04-20 05:55 | 25.06769 | 121.31013 | 2710 ft | 148 kts | 359° |
| 2026-04-20 05:55 | 25.07535 | 121.31718 | 2741 ft | 161 kts | 87° |
| 2026-04-20 05:56 | 25.07621 | 121.32989 | 2987 ft | 175 kts | 81° |
| 2026-04-20 05:56 | 25.07613 | 121.34347 | 3237 ft | 180 kts | 75° |
| 2026-04-20 05:56 | 25.07762 | 121.35655 | 3332 ft | 166 kts | 88° |
| 2026-04-20 05:56 | 25.07755 | 121.36866 | 3251 ft | 151 kts | 70° |
| 2026-04-20 05:57 | 25.07909 | 121.38144 | 3266 ft | 181 kts | 74° |
| 2026-04-20 05:57 | 25.07954 | 121.39528 | 3224 ft | 185 kts | 93° |
| 2026-04-20 05:57 | 25.07868 | 121.40935 | 3094 ft | 175 kts | 95° |
| 2026-04-20 05:57 | 25.07793 | 121.42240 | 2815 ft | 166 kts | 94° |
| 2026-04-20 05:58 | 25.07718 | 121.43480 | 2415 ft | 159 kts | 93° |
| 2026-04-20 05:58 | 25.07654 | 121.44677 | 2079 ft | 149 kts | 94° |
| 2026-04-20 05:58 | 25.07551 | 121.45826 | 1707 ft | 156 kts | 96° |
| 2026-04-20 05:58 | 25.07444 | 121.47006 | 1499 ft | 151 kts | 96° |
| 2026-04-20 05:59 | 25.07340 | 121.48157 | 1193 ft | 157 kts | 96° |
| 2026-04-20 05:59 | 25.07256 | 121.49374 | 851 ft | 161 kts | 93° |
| 2026-04-20 05:59 | 25.07195 | 121.50592 | 612 ft | 156 kts | 95° |
| 2026-04-20 05:59 | 25.07107 | 121.51748 | 432 ft | 147 kts | 95° |
| 2026-04-20 06:00 | 25.07056 | 121.52845 | 253 ft | 140 kts | 92° |
| 2026-04-20 06:00 | 25.07011 | 121.53887 | 90 ft | 131 kts | 93° |
| 2026-04-20 06:00 | 25.06974 | 121.54844 | 24 ft | 108 kts | 93° |
| 2026-04-20 06:00 | 25.06953 | 121.55371 | 27 ft | 47 kts | 92° |
| 2026-04-20 06:01 | 25.06875 | 121.55639 | 28 ft | 29 kts | 127° |
| 2026-04-20 06:01 | 25.06763 | 121.55738 | 26 ft | 19 kts | 160° |
| 2026-04-20 06:01 | 25.06657 | 121.55693 | 27 ft | 17 kts | 243° |
| 2026-04-20 06:01 | 25.06622 | 121.55564 | 28 ft | 18 kts | 257° |
| 2026-04-20 06:02 | 25.06591 | 121.55430 | 27 ft | 14 kts | 255° |
| 2026-04-20 06:02 | 25.06578 | 121.55315 | 30 ft | 16 kts | 269° |
| 2026-04-20 06:02 | 25.06576 | 121.55209 | 26 ft | 13 kts | 268° |
| 2026-04-20 06:02 | 25.06572 | 121.55133 | 26 ft | 7 kts | 258° |
| 2026-04-20 06:03 | 25.06532 | 121.55104 | 28 ft | 9 kts | 179° |
| 2026-04-20 06:03 | 25.06494 | 121.55105 | 27 ft | 2 kts | 179° |
| 2026-04-20 06:03 | 25.06489 | 121.55105 | 27 ft | 1 kts | 179° |
| 2026-04-20 06:03 | 25.06487 | 121.55105 | 27 ft | 0 kts | 179° |